sensor_id;sensor_type;location;lat;lon;timestamp;temperature;humidity
6948;DHT22;3513;47.664;9.162;2023-04-16T00:00:06;7.10;99.90
6948;DHT22;3513;47.664;9.162;2023-04-16T00:02:32;7.10;99.90
6948;DHT22;3513;47.664;9.162;2023-04-16T00:04:58;7.10;99.90
6948;DHT22;3513;47.664;9.162;2023-04-16T00:07:23;7.20;99.90
6948;DHT22;3513;47.664;9.162;2023-04-16T00:09:49;7.30;99.90
6948;DHT22;3513;47.664;9.162;2023-04-16T00:12:15;7.20;99.90
6948;DHT22;3513;47.664;9.162;2023-04-16T00:14:41;7.20;99.90
6948;DHT22;3513;47.664;9.162;2023-04-16T00:17:08;7.10;99.90
6948;DHT22;3513;47.664;9.162;2023-04-16T00:19:34;7.10;99.90
6948;DHT22;3513;47.664;9.162;2023-04-16T00:21:59;7.10;99.90
6948;DHT22;3513;47.664;9.162;2023-04-16T00:24:25;7.10;99.90
6948;DHT22;3513;47.664;9.162;2023-04-16T00:26:50;7.00;99.90
6948;DHT22;3513;47.664;9.162;2023-04-16T00:29:16;7.00;99.90
6948;DHT22;3513;47.664;9.162;2023-04-16T00:31:42;7.00;99.90
6948;DHT22;3513;47.664;9.162;2023-04-16T00:34:07;7.00;99.90
6948;DHT22;3513;47.664;9.162;2023-04-16T00:36:33;7.00;99.90
6948;DHT22;3513;47.664;9.162;2023-04-16T00:38:58;7.00;99.90
6948;DHT22;3513;47.664;9.162;2023-04-16T00:41:24;7.00;99.90
6948;DHT22;3513;47.664;9.162;2023-04-16T00:43:50;6.90;99.90
6948;DHT22;3513;47.664;9.162;2023-04-16T00:46:16;7.00;99.90
6948;DHT22;3513;47.664;9.162;2023-04-16T00:48:43;7.00;99.90
6948;DHT22;3513;47.664;9.162;2023-04-16T00:51:10;7.00;99.90
6948;DHT22;3513;47.664;9.162;2023-04-16T00:53:36;7.20;99.90
6948;DHT22;3513;47.664;9.162;2023-04-16T00:56:04;7.30;99.90
6948;DHT22;3513;47.664;9.162;2023-04-16T00:58:30;7.20;99.90
6948;DHT22;3513;47.664;9.162;2023-04-16T01:00:56;7.30;99.90
6948;DHT22;3513;47.664;9.162;2023-04-16T01:03:23;7.30;99.90
6948;DHT22;3513;47.664;9.162;2023-04-16T01:05:51;7.30;99.90
6948;DHT22;3513;47.664;9.162;2023-04-16T01:08:20;7.20;99.90
6948;DHT22;3513;47.664;9.162;2023-04-16T01:10:46;7.20;99.90
6948;DHT22;3513;47.664;9.162;2023-04-16T01:13:12;7.20;99.90
6948;DHT22;3513;47.664;9.162;2023-04-16T01:15:37;7.10;99.90
6948;DHT22;3513;47.664;9.162;2023-04-16T01:18:16;7.00;99.90
6948;DHT22;3513;47.664;9.162;2023-04-16T01:20:42;7.10;99.90
6948;DHT22;3513;47.664;9.162;2023-04-16T01:23:07;7.10;99.90
6948;DHT22;3513;47.664;9.162;2023-04-16T01:25:33;7.20;99.90
6948;DHT22;3513;47.664;9.162;2023-04-16T01:27:59;7.10;99.90
6948;DHT22;3513;47.664;9.162;2023-04-16T01:30:25;7.10;99.90
6948;DHT22;3513;47.664;9.162;2023-04-16T01:32:50;7.10;99.90
6948;DHT22;3513;47.664;9.162;2023-04-16T01:35:16;7.10;99.90
6948;DHT22;3513;47.664;9.162;2023-04-16T01:37:43;7.10;99.90
6948;DHT22;3513;47.664;9.162;2023-04-16T01:40:09;7.10;99.90
6948;DHT22;3513;47.664;9.162;2023-04-16T01:42:34;7.10;99.90
6948;DHT22;3513;47.664;9.162;2023-04-16T01:45:00;7.00;99.90
6948;DHT22;3513;47.664;9.162;2023-04-16T01:47:26;7.00;99.90
6948;DHT22;3513;47.664;9.162;2023-04-16T01:49:51;7.00;99.90
6948;DHT22;3513;47.664;9.162;2023-04-16T01:52:17;7.00;99.90
6948;DHT22;3513;47.664;9.162;2023-04-16T01:54:42;7.10;99.90
6948;DHT22;3513;47.664;9.162;2023-04-16T01:57:08;7.00;99.90
6948;DHT22;3513;47.664;9.162;2023-04-16T01:59:34;7.00;99.90
6948;DHT22;3513;47.664;9.162;2023-04-16T02:02:06;7.00;99.90
6948;DHT22;3513;47.664;9.162;2023-04-16T02:04:32;7.00;99.90
6948;DHT22;3513;47.664;9.162;2023-04-16T02:06:58;7.00;99.90
6948;DHT22;3513;47.664;9.162;2023-04-16T02:09:23;7.00;99.90
6948;DHT22;3513;47.664;9.162;2023-04-16T02:11:49;7.10;99.90
6948;DHT22;3513;47.664;9.162;2023-04-16T02:14:15;7.00;99.90
6948;DHT22;3513;47.664;9.162;2023-04-16T02:16:40;7.00;99.90
6948;DHT22;3513;47.664;9.162;2023-04-16T02:19:06;7.00;99.90
6948;DHT22;3513;47.664;9.162;2023-04-16T02:21:31;7.00;99.90
6948;DHT22;3513;47.664;9.162;2023-04-16T02:23:57;7.00;99.90
6948;DHT22;3513;47.664;9.162;2023-04-16T02:26:22;7.00;99.90
6948;DHT22;3513;47.664;9.162;2023-04-16T02:28:48;7.00;99.90
6948;DHT22;3513;47.664;9.162;2023-04-16T02:31:14;6.90;99.90
6948;DHT22;3513;47.664;9.162;2023-04-16T02:33:42;6.90;99.90
6948;DHT22;3513;47.664;9.162;2023-04-16T02:36:08;7.00;99.90
6948;DHT22;3513;47.664;9.162;2023-04-16T02:38:35;6.90;99.90
6948;DHT22;3513;47.664;9.162;2023-04-16T02:41:01;6.90;99.90
6948;DHT22;3513;47.664;9.162;2023-04-16T02:43:27;6.90;99.90
6948;DHT22;3513;47.664;9.162;2023-04-16T02:45:52;6.90;99.90
6948;DHT22;3513;47.664;9.162;2023-04-16T02:48:18;6.90;99.90
6948;DHT22;3513;47.664;9.162;2023-04-16T02:50:44;6.90;99.90
6948;DHT22;3513;47.664;9.162;2023-04-16T02:53:09;6.90;99.90
6948;DHT22;3513;47.664;9.162;2023-04-16T02:55:35;6.90;99.90
6948;DHT22;3513;47.664;9.162;2023-04-16T02:58:01;6.90;99.90
6948;DHT22;3513;47.664;9.162;2023-04-16T03:00:27;6.90;99.90
6948;DHT22;3513;47.664;9.162;2023-04-16T03:02:52;6.90;99.90
6948;DHT22;3513;47.664;9.162;2023-04-16T03:05:18;6.90;99.90
6948;DHT22;3513;47.664;9.162;2023-04-16T03:07:43;6.90;99.90
6948;DHT22;3513;47.664;9.162;2023-04-16T03:10:09;6.90;99.90
6948;DHT22;3513;47.664;9.162;2023-04-16T03:12:36;7.00;99.90
6948;DHT22;3513;47.664;9.162;2023-04-16T03:15:02;7.10;99.90
6948;DHT22;3513;47.664;9.162;2023-04-16T03:17:27;7.10;99.90
6948;DHT22;3513;47.664;9.162;2023-04-16T03:19:53;7.20;99.90
6948;DHT22;3513;47.664;9.162;2023-04-16T03:22:18;7.20;99.90
6948;DHT22;3513;47.664;9.162;2023-04-16T03:24:44;7.30;99.90
6948;DHT22;3513;47.664;9.162;2023-04-16T03:27:09;7.30;99.90
6948;DHT22;3513;47.664;9.162;2023-04-16T03:29:36;7.30;99.90
6948;DHT22;3513;47.664;9.162;2023-04-16T03:32:02;7.30;99.90
6948;DHT22;3513;47.664;9.162;2023-04-16T03:34:28;7.30;99.90
6948;DHT22;3513;47.664;9.162;2023-04-16T03:36:54;7.30;99.90
6948;DHT22;3513;47.664;9.162;2023-04-16T03:39:19;7.30;99.90
6948;DHT22;3513;47.664;9.162;2023-04-16T03:41:45;7.20;99.90
6948;DHT22;3513;47.664;9.162;2023-04-16T03:44:11;7.20;99.90
6948;DHT22;3513;47.664;9.162;2023-04-16T03:46:36;7.20;99.90
6948;DHT22;3513;47.664;9.162;2023-04-16T03:49:02;7.20;99.90
6948;DHT22;3513;47.664;9.162;2023-04-16T03:51:27;7.20;99.90
6948;DHT22;3513;47.664;9.162;2023-04-16T03:53:53;7.10;99.90
6948;DHT22;3513;47.664;9.162;2023-04-16T03:56:18;7.30;99.90
6948;DHT22;3513;47.664;9.162;2023-04-16T03:58:45;7.30;99.90
6948;DHT22;3513;47.664;9.162;2023-04-16T04:01:10;7.30;99.90
6948;DHT22;3513;47.664;9.162;2023-04-16T04:03:36;7.20;99.90
6948;DHT22;3513;47.664;9.162;2023-04-16T04:06:06;7.10;99.90
6948;DHT22;3513;47.664;9.162;2023-04-16T04:08:32;7.30;99.90
6948;DHT22;3513;47.664;9.162;2023-04-16T04:10:58;7.20;99.90
6948;DHT22;3513;47.664;9.162;2023-04-16T04:13:23;7.10;99.90
6948;DHT22;3513;47.664;9.162;2023-04-16T04:15:49;7.10;99.90
6948;DHT22;3513;47.664;9.162;2023-04-16T04:18:15;7.10;99.90
6948;DHT22;3513;47.664;9.162;2023-04-16T04:20:40;7.10;99.90
6948;DHT22;3513;47.664;9.162;2023-04-16T04:23:06;7.00;99.90
6948;DHT22;3513;47.664;9.162;2023-04-16T04:25:31;7.00;99.90
6948;DHT22;3513;47.664;9.162;2023-04-16T04:27:57;7.00;99.90
6948;DHT22;3513;47.664;9.162;2023-04-16T04:30:23;7.10;99.90
6948;DHT22;3513;47.664;9.162;2023-04-16T04:32:48;7.20;99.90
6948;DHT22;3513;47.664;9.162;2023-04-16T04:35:14;7.20;99.90
6948;DHT22;3513;47.664;9.162;2023-04-16T04:37:40;7.30;99.90
6948;DHT22;3513;47.664;9.162;2023-04-16T04:40:06;7.30;99.90
6948;DHT22;3513;47.664;9.162;2023-04-16T04:42:32;7.40;99.90
6948;DHT22;3513;47.664;9.162;2023-04-16T04:44:57;7.40;99.90
6948;DHT22;3513;47.664;9.162;2023-04-16T04:47:23;7.30;99.90
6948;DHT22;3513;47.664;9.162;2023-04-16T04:49:49;7.30;99.90
6948;DHT22;3513;47.664;9.162;2023-04-16T04:52:14;7.40;99.90
6948;DHT22;3513;47.664;9.162;2023-04-16T04:54:40;7.10;99.90
6948;DHT22;3513;47.664;9.162;2023-04-16T04:57:06;7.40;99.90
6948;DHT22;3513;47.664;9.162;2023-04-16T04:59:32;7.10;99.90
6948;DHT22;3513;47.664;9.162;2023-04-16T05:01:58;7.10;99.90
6948;DHT22;3513;47.664;9.162;2023-04-16T05:04:24;7.00;99.90
6948;DHT22;3513;47.664;9.162;2023-04-16T05:06:49;7.00;99.90
6948;DHT22;3513;47.664;9.162;2023-04-16T05:09:15;7.00;99.90
6948;DHT22;3513;47.664;9.162;2023-04-16T05:11:41;7.10;99.90
6948;DHT22;3513;47.664;9.162;2023-04-16T05:14:07;7.00;99.90
6948;DHT22;3513;47.664;9.162;2023-04-16T05:16:36;7.00;99.90
6948;DHT22;3513;47.664;9.162;2023-04-16T05:19:02;7.00;99.90
6948;DHT22;3513;47.664;9.162;2023-04-16T05:21:27;7.00;99.90
6948;DHT22;3513;47.664;9.162;2023-04-16T05:23:53;7.10;99.90
6948;DHT22;3513;47.664;9.162;2023-04-16T05:26:19;7.20;99.90
6948;DHT22;3513;47.664;9.162;2023-04-16T05:28:45;7.40;99.90
6948;DHT22;3513;47.664;9.162;2023-04-16T05:31:11;7.50;99.90
6948;DHT22;3513;47.664;9.162;2023-04-16T05:33:36;7.50;99.90
6948;DHT22;3513;47.664;9.162;2023-04-16T05:36:02;7.50;99.90
6948;DHT22;3513;47.664;9.162;2023-04-16T05:38:28;7.50;99.90
6948;DHT22;3513;47.664;9.162;2023-04-16T05:40:54;7.40;99.90
6948;DHT22;3513;47.664;9.162;2023-04-16T05:43:20;7.40;99.90
6948;DHT22;3513;47.664;9.162;2023-04-16T05:45:46;7.50;99.90
6948;DHT22;3513;47.664;9.162;2023-04-16T05:48:21;7.50;99.90
6948;DHT22;3513;47.664;9.162;2023-04-16T05:50:53;7.40;99.90
6948;DHT22;3513;47.664;9.162;2023-04-16T05:53:19;7.40;99.90
6948;DHT22;3513;47.664;9.162;2023-04-16T05:55:44;7.40;99.90
6948;DHT22;3513;47.664;9.162;2023-04-16T05:58:11;7.90;99.90
6948;DHT22;3513;47.664;9.162;2023-04-16T06:00:36;7.30;99.90
6948;DHT22;3513;47.664;9.162;2023-04-16T06:03:02;7.30;99.90
6948;DHT22;3513;47.664;9.162;2023-04-16T06:05:28;7.30;99.90
6948;DHT22;3513;47.664;9.162;2023-04-16T06:07:54;7.40;99.90
6948;DHT22;3513;47.664;9.162;2023-04-16T06:10:20;7.30;99.90
6948;DHT22;3513;47.664;9.162;2023-04-16T06:12:46;7.50;99.90
6948;DHT22;3513;47.664;9.162;2023-04-16T06:15:11;7.50;99.90
6948;DHT22;3513;47.664;9.162;2023-04-16T06:17:37;7.70;99.90
6948;DHT22;3513;47.664;9.162;2023-04-16T06:20:03;7.50;99.90
6948;DHT22;3513;47.664;9.162;2023-04-16T06:22:29;7.40;99.90
6948;DHT22;3513;47.664;9.162;2023-04-16T06:24:55;7.40;99.90
6948;DHT22;3513;47.664;9.162;2023-04-16T06:27:20;7.40;99.90
6948;DHT22;3513;47.664;9.162;2023-04-16T06:29:46;7.40;99.90
6948;DHT22;3513;47.664;9.162;2023-04-16T06:32:12;7.50;99.90
6948;DHT22;3513;47.664;9.162;2023-04-16T06:34:37;8.30;99.90
6948;DHT22;3513;47.664;9.162;2023-04-16T06:37:04;7.60;99.90
6948;DHT22;3513;47.664;9.162;2023-04-16T06:39:29;8.10;99.90
6948;DHT22;3513;47.664;9.162;2023-04-16T06:41:55;8.50;99.90
6948;DHT22;3513;47.664;9.162;2023-04-16T06:44:21;7.70;99.90
6948;DHT22;3513;47.664;9.162;2023-04-16T06:46:47;7.90;99.90
6948;DHT22;3513;47.664;9.162;2023-04-16T06:49:12;7.70;99.90
6948;DHT22;3513;47.664;9.162;2023-04-16T06:51:38;7.70;99.90
6948;DHT22;3513;47.664;9.162;2023-04-16T06:54:04;7.80;99.90
6948;DHT22;3513;47.664;9.162;2023-04-16T06:56:30;7.80;99.90
6948;DHT22;3513;47.664;9.162;2023-04-16T06:58:56;7.80;99.90
6948;DHT22;3513;47.664;9.162;2023-04-16T07:01:23;7.80;99.90
6948;DHT22;3513;47.664;9.162;2023-04-16T07:03:49;7.90;99.90
6948;DHT22;3513;47.664;9.162;2023-04-16T07:06:15;7.90;99.90
6948;DHT22;3513;47.664;9.162;2023-04-16T07:08:40;7.90;99.90
6948;DHT22;3513;47.664;9.162;2023-04-16T07:11:06;7.90;99.90
6948;DHT22;3513;47.664;9.162;2023-04-16T07:13:31;8.00;99.90
6948;DHT22;3513;47.664;9.162;2023-04-16T07:15:57;8.00;99.90
6948;DHT22;3513;47.664;9.162;2023-04-16T07:18:22;8.90;99.90
6948;DHT22;3513;47.664;9.162;2023-04-16T07:20:48;8.20;99.90
6948;DHT22;3513;47.664;9.162;2023-04-16T07:23:14;8.70;99.90
6948;DHT22;3513;47.664;9.162;2023-04-16T07:25:39;8.80;99.90
6948;DHT22;3513;47.664;9.162;2023-04-16T07:28:06;8.20;99.90
6948;DHT22;3513;47.664;9.162;2023-04-16T07:30:32;8.20;99.90
6948;DHT22;3513;47.664;9.162;2023-04-16T07:33:02;8.40;99.90
6948;DHT22;3513;47.664;9.162;2023-04-16T07:35:28;8.40;99.90
6948;DHT22;3513;47.664;9.162;2023-04-16T07:37:54;8.40;99.90
6948;DHT22;3513;47.664;9.162;2023-04-16T07:40:20;8.40;99.90
6948;DHT22;3513;47.664;9.162;2023-04-16T07:42:46;8.30;99.90
6948;DHT22;3513;47.664;9.162;2023-04-16T07:45:11;8.50;99.90
6948;DHT22;3513;47.664;9.162;2023-04-16T07:47:37;8.30;99.90
6948;DHT22;3513;47.664;9.162;2023-04-16T07:50:03;8.30;99.90
6948;DHT22;3513;47.664;9.162;2023-04-16T07:52:29;8.40;99.90
6948;DHT22;3513;47.664;9.162;2023-04-16T07:54:54;8.30;99.90
6948;DHT22;3513;47.664;9.162;2023-04-16T07:57:20;8.30;99.90
6948;DHT22;3513;47.664;9.162;2023-04-16T07:59:46;8.60;99.90
6948;DHT22;3513;47.664;9.162;2023-04-16T08:02:14;8.20;99.90
6948;DHT22;3513;47.664;9.162;2023-04-16T08:04:41;8.30;99.90
6948;DHT22;3513;47.664;9.162;2023-04-16T08:07:07;8.50;99.90
6948;DHT22;3513;47.664;9.162;2023-04-16T08:09:32;8.30;99.90
6948;DHT22;3513;47.664;9.162;2023-04-16T08:12:01;8.30;99.90
6948;DHT22;3513;47.664;9.162;2023-04-16T08:14:27;8.30;99.90
6948;DHT22;3513;47.664;9.162;2023-04-16T08:16:53;8.20;99.90
6948;DHT22;3513;47.664;9.162;2023-04-16T08:19:18;8.30;99.90
6948;DHT22;3513;47.664;9.162;2023-04-16T08:21:44;8.40;99.90
6948;DHT22;3513;47.664;9.162;2023-04-16T08:24:10;8.40;99.90
6948;DHT22;3513;47.664;9.162;2023-04-16T08:26:36;8.50;99.90
6948;DHT22;3513;47.664;9.162;2023-04-16T08:29:02;8.50;99.90
6948;DHT22;3513;47.664;9.162;2023-04-16T08:31:27;8.50;99.90
6948;DHT22;3513;47.664;9.162;2023-04-16T08:33:53;8.50;99.90
6948;DHT22;3513;47.664;9.162;2023-04-16T08:36:18;8.80;99.90
6948;DHT22;3513;47.664;9.162;2023-04-16T08:38:45;8.60;99.90
6948;DHT22;3513;47.664;9.162;2023-04-16T08:41:11;8.60;99.90
6948;DHT22;3513;47.664;9.162;2023-04-16T08:43:39;9.20;99.90
6948;DHT22;3513;47.664;9.162;2023-04-16T08:46:06;8.70;99.90
6948;DHT22;3513;47.664;9.162;2023-04-16T08:48:33;9.40;99.90
6948;DHT22;3513;47.664;9.162;2023-04-16T08:51:01;8.70;99.90
6948;DHT22;3513;47.664;9.162;2023-04-16T08:53:34;8.50;99.90
6948;DHT22;3513;47.664;9.162;2023-04-16T08:56:03;8.50;99.90
6948;DHT22;3513;47.664;9.162;2023-04-16T08:58:31;8.50;99.90
6948;DHT22;3513;47.664;9.162;2023-04-16T09:00:59;8.50;99.90
6948;DHT22;3513;47.664;9.162;2023-04-16T09:03:26;8.90;99.90
6948;DHT22;3513;47.664;9.162;2023-04-16T09:05:53;8.50;99.90
6948;DHT22;3513;47.664;9.162;2023-04-16T09:08:20;8.60;99.90
6948;DHT22;3513;47.664;9.162;2023-04-16T09:10:46;8.70;99.90
6948;DHT22;3513;47.664;9.162;2023-04-16T09:13:12;8.70;99.90
6948;DHT22;3513;47.664;9.162;2023-04-16T09:15:41;8.70;99.90
6948;DHT22;3513;47.664;9.162;2023-04-16T09:18:07;8.60;99.90
6948;DHT22;3513;47.664;9.162;2023-04-16T09:20:33;8.70;99.90
6948;DHT22;3513;47.664;9.162;2023-04-16T09:22:59;8.70;99.90
6948;DHT22;3513;47.664;9.162;2023-04-16T09:25:24;8.70;99.90
6948;DHT22;3513;47.664;9.162;2023-04-16T09:27:51;8.90;99.90
6948;DHT22;3513;47.664;9.162;2023-04-16T09:30:20;8.80;99.90
6948;DHT22;3513;47.664;9.162;2023-04-16T09:32:46;8.80;99.90
6948;DHT22;3513;47.664;9.162;2023-04-16T09:35:12;8.80;99.90
6948;DHT22;3513;47.664;9.162;2023-04-16T09:37:53;8.80;99.90
6948;DHT22;3513;47.664;9.162;2023-04-16T09:40:26;8.80;99.90
6948;DHT22;3513;47.664;9.162;2023-04-16T09:42:56;8.80;99.90
6948;DHT22;3513;47.664;9.162;2023-04-16T09:45:21;8.70;99.90
6948;DHT22;3513;47.664;9.162;2023-04-16T09:47:47;8.70;99.90
6948;DHT22;3513;47.664;9.162;2023-04-16T09:50:17;8.70;99.90
6948;DHT22;3513;47.664;9.162;2023-04-16T09:52:48;8.70;99.90
6948;DHT22;3513;47.664;9.162;2023-04-16T09:55:14;8.80;99.90
6948;DHT22;3513;47.664;9.162;2023-04-16T09:57:39;9.00;99.90
6948;DHT22;3513;47.664;9.162;2023-04-16T10:00:07;8.80;99.90
6948;DHT22;3513;47.664;9.162;2023-04-16T10:02:34;8.90;99.90
6948;DHT22;3513;47.664;9.162;2023-04-16T10:05:01;8.90;99.90
6948;DHT22;3513;47.664;9.162;2023-04-16T10:07:34;8.90;99.90
6948;DHT22;3513;47.664;9.162;2023-04-16T10:10:00;8.90;99.90
6948;DHT22;3513;47.664;9.162;2023-04-16T10:12:26;8.80;99.90
6948;DHT22;3513;47.664;9.162;2023-04-16T10:14:53;8.80;99.90
6948;DHT22;3513;47.664;9.162;2023-04-16T10:17:18;8.90;99.90
6948;DHT22;3513;47.664;9.162;2023-04-16T10:19:45;9.00;99.90
6948;DHT22;3513;47.664;9.162;2023-04-16T10:22:11;8.90;99.90
6948;DHT22;3513;47.664;9.162;2023-04-16T10:24:37;8.90;99.90
6948;DHT22;3513;47.664;9.162;2023-04-16T10:27:03;8.90;99.90
6948;DHT22;3513;47.664;9.162;2023-04-16T10:29:29;9.00;99.90
6948;DHT22;3513;47.664;9.162;2023-04-16T10:31:55;9.00;99.90
6948;DHT22;3513;47.664;9.162;2023-04-16T10:34:23;9.00;99.90
6948;DHT22;3513;47.664;9.162;2023-04-16T10:36:50;9.00;99.90
6948;DHT22;3513;47.664;9.162;2023-04-16T10:39:22;9.10;99.90
6948;DHT22;3513;47.664;9.162;2023-04-16T10:41:48;9.10;99.90
6948;DHT22;3513;47.664;9.162;2023-04-16T10:44:17;9.00;99.90
6948;DHT22;3513;47.664;9.162;2023-04-16T10:46:47;9.20;99.90
6948;DHT22;3513;47.664;9.162;2023-04-16T10:49:14;9.20;99.90
6948;DHT22;3513;47.664;9.162;2023-04-16T10:51:40;9.20;99.90
6948;DHT22;3513;47.664;9.162;2023-04-16T10:56:39;9.20;99.90
6948;DHT22;3513;47.664;9.162;2023-04-16T10:59:06;9.10;99.90
6948;DHT22;3513;47.664;9.162;2023-04-16T11:01:36;9.10;99.90
6948;DHT22;3513;47.664;9.162;2023-04-16T11:07:13;9.20;99.90
6948;DHT22;3513;47.664;9.162;2023-04-16T11:10:04;9.20;99.90
6948;DHT22;3513;47.664;9.162;2023-04-16T11:15:09;9.20;99.90
6948;DHT22;3513;47.664;9.162;2023-04-16T11:17:38;9.30;99.90
6948;DHT22;3513;47.664;9.162;2023-04-16T11:20:15;9.30;99.90
6948;DHT22;3513;47.664;9.162;2023-04-16T11:22:41;9.20;99.90
6948;DHT22;3513;47.664;9.162;2023-04-16T11:25:07;9.20;99.90
6948;DHT22;3513;47.664;9.162;2023-04-16T11:27:33;9.30;99.90
6948;DHT22;3513;47.664;9.162;2023-04-16T11:30:01;9.30;99.90
6948;DHT22;3513;47.664;9.162;2023-04-16T11:32:33;9.30;99.90
6948;DHT22;3513;47.664;9.162;2023-04-16T11:35:01;9.20;99.90
6948;DHT22;3513;47.664;9.162;2023-04-16T11:37:36;9.30;99.90
6948;DHT22;3513;47.664;9.162;2023-04-16T11:40:03;9.20;99.90
6948;DHT22;3513;47.664;9.162;2023-04-16T11:42:32;9.20;99.90
6948;DHT22;3513;47.664;9.162;2023-04-16T11:44:59;9.30;99.90
6948;DHT22;3513;47.664;9.162;2023-04-16T11:47:25;9.30;99.90
6948;DHT22;3513;47.664;9.162;2023-04-16T11:49:51;9.40;99.90
6948;DHT22;3513;47.664;9.162;2023-04-16T11:52:28;9.50;99.90
6948;DHT22;3513;47.664;9.162;2023-04-16T11:54:54;9.50;99.90
6948;DHT22;3513;47.664;9.162;2023-04-16T11:57:27;9.60;99.90
6948;DHT22;3513;47.664;9.162;2023-04-16T11:59:54;9.60;99.90
6948;DHT22;3513;47.664;9.162;2023-04-16T12:05:05;9.60;99.90
6948;DHT22;3513;47.664;9.162;2023-04-16T12:07:33;9.80;99.90
6948;DHT22;3513;47.664;9.162;2023-04-16T12:10:07;10.00;99.90
6948;DHT22;3513;47.664;9.162;2023-04-16T12:12:33;10.10;99.90
6948;DHT22;3513;47.664;9.162;2023-04-16T12:15:01;10.10;99.90
6948;DHT22;3513;47.664;9.162;2023-04-16T12:17:33;10.00;99.90
6948;DHT22;3513;47.664;9.162;2023-04-16T12:20:01;10.00;99.90
6948;DHT22;3513;47.664;9.162;2023-04-16T12:22:36;10.00;99.90
6948;DHT22;3513;47.664;9.162;2023-04-16T12:25:03;9.90;99.90
6948;DHT22;3513;47.664;9.162;2023-04-16T12:27:55;9.90;99.90
6948;DHT22;3513;47.664;9.162;2023-04-16T12:30:23;9.80;99.90
6948;DHT22;3513;47.664;9.162;2023-04-16T12:32:52;9.70;99.90
6948;DHT22;3513;47.664;9.162;2023-04-16T12:35:32;9.70;99.90
6948;DHT22;3513;47.664;9.162;2023-04-16T12:37:58;9.60;99.90
6948;DHT22;3513;47.664;9.162;2023-04-16T12:40:24;9.60;99.90
6948;DHT22;3513;47.664;9.162;2023-04-16T12:42:50;9.60;99.90
6948;DHT22;3513;47.664;9.162;2023-04-16T12:45:15;9.50;99.90
6948;DHT22;3513;47.664;9.162;2023-04-16T12:47:41;9.50;99.90
6948;DHT22;3513;47.664;9.162;2023-04-16T12:50:07;9.40;99.90
6948;DHT22;3513;47.664;9.162;2023-04-16T12:52:33;9.50;99.90
6948;DHT22;3513;47.664;9.162;2023-04-16T12:55:00;9.40;99.90
6948;DHT22;3513;47.664;9.162;2023-04-16T12:57:26;9.50;99.90
6948;DHT22;3513;47.664;9.162;2023-04-16T12:59:56;9.50;99.90
6948;DHT22;3513;47.664;9.162;2023-04-16T13:02:22;9.70;99.90
6948;DHT22;3513;47.664;9.162;2023-04-16T13:04:49;9.80;99.90
6948;DHT22;3513;47.664;9.162;2023-04-16T13:07:14;9.90;99.90
6948;DHT22;3513;47.664;9.162;2023-04-16T13:09:41;9.90;99.90
6948;DHT22;3513;47.664;9.162;2023-04-16T13:12:07;10.10;99.90
6948;DHT22;3513;47.664;9.162;2023-04-16T13:14:33;10.10;99.90
6948;DHT22;3513;47.664;9.162;2023-04-16T13:16:58;10.20;99.90
6948;DHT22;3513;47.664;9.162;2023-04-16T13:19:24;10.10;99.90
6948;DHT22;3513;47.664;9.162;2023-04-16T13:21:50;10.10;99.90
6948;DHT22;3513;47.664;9.162;2023-04-16T13:24:16;10.10;99.90
6948;DHT22;3513;47.664;9.162;2023-04-16T13:26:41;10.10;99.90
6948;DHT22;3513;47.664;9.162;2023-04-16T13:29:08;10.10;99.90
6948;DHT22;3513;47.664;9.162;2023-04-16T13:31:34;10.20;99.90
6948;DHT22;3513;47.664;9.162;2023-04-16T13:34:00;10.20;99.90
6948;DHT22;3513;47.664;9.162;2023-04-16T13:36:25;10.30;99.90
6948;DHT22;3513;47.664;9.162;2023-04-16T13:38:51;10.40;99.90
6948;DHT22;3513;47.664;9.162;2023-04-16T13:41:17;10.50;99.90
6948;DHT22;3513;47.664;9.162;2023-04-16T13:43:43;10.60;99.90
6948;DHT22;3513;47.664;9.162;2023-04-16T13:46:08;10.70;99.90
6948;DHT22;3513;47.664;9.162;2023-04-16T13:48:34;10.80;99.90
6948;DHT22;3513;47.664;9.162;2023-04-16T13:51:00;10.90;99.90
6948;DHT22;3513;47.664;9.162;2023-04-16T13:53:25;10.90;99.90
6948;DHT22;3513;47.664;9.162;2023-04-16T13:55:51;10.90;99.90
6948;DHT22;3513;47.664;9.162;2023-04-16T13:58:16;10.80;99.90
6948;DHT22;3513;47.664;9.162;2023-04-16T14:00:42;10.70;99.90
6948;DHT22;3513;47.664;9.162;2023-04-16T14:03:08;10.60;99.90
6948;DHT22;3513;47.664;9.162;2023-04-16T14:05:33;10.70;99.90
6948;DHT22;3513;47.664;9.162;2023-04-16T14:07:59;10.70;99.90
6948;DHT22;3513;47.664;9.162;2023-04-16T14:10:25;10.70;99.90
6948;DHT22;3513;47.664;9.162;2023-04-16T14:12:50;10.60;99.90
6948;DHT22;3513;47.664;9.162;2023-04-16T14:15:16;10.60;99.90
6948;DHT22;3513;47.664;9.162;2023-04-16T14:17:43;10.50;99.90
6948;DHT22;3513;47.664;9.162;2023-04-16T14:20:12;10.50;99.90
6948;DHT22;3513;47.664;9.162;2023-04-16T14:22:38;10.30;99.90
6948;DHT22;3513;47.664;9.162;2023-04-16T14:25:05;10.10;99.90
6948;DHT22;3513;47.664;9.162;2023-04-16T14:27:31;10.00;99.90
6948;DHT22;3513;47.664;9.162;2023-04-16T14:29:57;9.90;99.90
6948;DHT22;3513;47.664;9.162;2023-04-16T14:32:22;9.90;99.90
6948;DHT22;3513;47.664;9.162;2023-04-16T14:34:48;9.90;99.90
6948;DHT22;3513;47.664;9.162;2023-04-16T14:37:16;9.90;99.90
6948;DHT22;3513;47.664;9.162;2023-04-16T14:39:42;9.80;99.90
6948;DHT22;3513;47.664;9.162;2023-04-16T14:42:07;9.90;99.90
6948;DHT22;3513;47.664;9.162;2023-04-16T14:44:33;10.00;99.90
6948;DHT22;3513;47.664;9.162;2023-04-16T14:46:58;10.10;99.90
6948;DHT22;3513;47.664;9.162;2023-04-16T14:49:24;10.10;99.90
6948;DHT22;3513;47.664;9.162;2023-04-16T14:51:50;10.10;99.90
6948;DHT22;3513;47.664;9.162;2023-04-16T14:54:17;10.10;99.90
6948;DHT22;3513;47.664;9.162;2023-04-16T14:56:44;10.10;99.90
6948;DHT22;3513;47.664;9.162;2023-04-16T14:59:10;10.00;99.90
6948;DHT22;3513;47.664;9.162;2023-04-16T15:01:35;10.00;99.90
6948;DHT22;3513;47.664;9.162;2023-04-16T15:04:04;10.00;99.90
6948;DHT22;3513;47.664;9.162;2023-04-16T15:06:30;10.00;99.90
6948;DHT22;3513;47.664;9.162;2023-04-16T15:08:56;9.90;99.90
6948;DHT22;3513;47.664;9.162;2023-04-16T15:11:22;9.80;99.90
6948;DHT22;3513;47.664;9.162;2023-04-16T15:13:47;9.80;99.90
6948;DHT22;3513;47.664;9.162;2023-04-16T15:16:13;9.70;99.90
6948;DHT22;3513;47.664;9.162;2023-04-16T15:18:38;9.80;99.90
6948;DHT22;3513;47.664;9.162;2023-04-16T15:21:04;9.70;99.90
6948;DHT22;3513;47.664;9.162;2023-04-16T15:23:30;9.70;99.90
6948;DHT22;3513;47.664;9.162;2023-04-16T15:25:55;9.60;99.90
6948;DHT22;3513;47.664;9.162;2023-04-16T15:28:21;9.70;99.90
6948;DHT22;3513;47.664;9.162;2023-04-16T15:30:46;9.60;99.90
6948;DHT22;3513;47.664;9.162;2023-04-16T15:33:12;9.60;99.90
6948;DHT22;3513;47.664;9.162;2023-04-16T15:35:38;9.60;99.90
6948;DHT22;3513;47.664;9.162;2023-04-16T15:38:06;9.60;99.90
6948;DHT22;3513;47.664;9.162;2023-04-16T15:40:32;9.60;99.90
6948;DHT22;3513;47.664;9.162;2023-04-16T15:42:57;9.70;99.90
6948;DHT22;3513;47.664;9.162;2023-04-16T15:45:23;9.70;99.90
6948;DHT22;3513;47.664;9.162;2023-04-16T15:47:50;9.70;99.90
6948;DHT22;3513;47.664;9.162;2023-04-16T15:50:16;9.70;99.90
6948;DHT22;3513;47.664;9.162;2023-04-16T15:52:42;9.70;99.90
6948;DHT22;3513;47.664;9.162;2023-04-16T15:55:08;9.70;99.90
6948;DHT22;3513;47.664;9.162;2023-04-16T15:57:34;9.60;99.90
6948;DHT22;3513;47.664;9.162;2023-04-16T16:00:00;9.60;99.90
6948;DHT22;3513;47.664;9.162;2023-04-16T16:02:25;9.50;99.90
6948;DHT22;3513;47.664;9.162;2023-04-16T16:04:51;9.40;99.90
6948;DHT22;3513;47.664;9.162;2023-04-16T16:07:16;9.40;99.90
6948;DHT22;3513;47.664;9.162;2023-04-16T16:09:44;9.40;99.90
6948;DHT22;3513;47.664;9.162;2023-04-16T16:12:11;9.30;99.90
6948;DHT22;3513;47.664;9.162;2023-04-16T16:14:37;9.30;99.90
6948;DHT22;3513;47.664;9.162;2023-04-16T16:17:03;9.20;99.90
6948;DHT22;3513;47.664;9.162;2023-04-16T16:19:28;9.10;99.90
6948;DHT22;3513;47.664;9.162;2023-04-16T16:21:54;9.20;99.90